Time;durP1;ratioP1;P1;durP2;ratioP2;P2;SDS_P1;SDS_P2;PMS_P1;PMS_P2;Temp;Humidity;BMP_temperature;BMP_pressure;BME280_temperature;BME280_humidity;BME280_pressure;Samples;Min_cycle;Max_cycle;Signal;HPM_P1;HPM_P2
2022/04/05 00:00:08;;;;;;;27.87;11.50;;;;;;;0.05;60.47;97370.71;1719139;83;21023;-79
2022/04/05 00:02:56;;;;;;;18.32;9.90;;;;;;;-0.03;60.59;97370.24;1718743;83;21084;-78
2022/04/05 00:05:25;;;;;;;14.40;8.73;;;;;;;-0.15;60.71;97362.41;1719159;83;21047;-78
2022/04/05 00:07:52;;;;;;;25.52;11.25;;;;;;;-0.23;60.89;97361.09;1718998;83;21071;-78
2022/04/05 00:10:19;;;;;;;27.87;11.68;;;;;;;-0.30;60.77;97360.19;1718994;83;21488;-78
2022/04/05 00:12:45;;;;;;;20.95;9.88;;;;;;;-0.37;60.87;97363.66;1719104;83;21028;-77
2022/04/05 00:15:12;;;;;;;17.40;9.15;;;;;;;-0.45;60.91;97354.48;1718916;83;21051;-78
2022/04/05 00:17:39;;;;;;;11.50;7.55;;;;;;;-0.42;61.11;97358.41;1719040;83;21019;-78
2022/04/05 00:20:07;;;;;;;12.85;8.33;;;;;;;-0.45;61.16;97354.94;1718940;83;21036;-78
2022/04/05 00:22:35;;;;;;;12.55;7.95;;;;;;;-0.45;61.18;97351.03;1718798;83;21024;-78
2022/04/05 00:25:04;;;;;;;10.25;6.90;;;;;;;-0.44;61.27;97345.83;1718866;83;21441;-78
2022/04/05 00:27:30;;;;;;;11.65;7.40;;;;;;;-0.49;61.16;97343.64;1719172;83;21032;-79
2022/04/05 00:29:59;;;;;;;9.20;6.70;;;;;;;-0.53;61.37;97340.59;1721053;82;21041;-79
2022/04/05 00:32:27;;;;;;;11.00;6.97;;;;;;;-0.57;61.34;97331.02;1720991;83;21011;-78
2022/04/05 00:34:53;;;;;;;12.80;6.85;;;;;;;-0.63;61.52;97333.61;1722266;83;21126;-79
2022/04/05 00:37:20;;;;;;;10.80;7.15;;;;;;;-0.63;61.56;97321.89;1723032;83;21049;-79
2022/04/05 00:39:50;;;;;;;11.08;6.95;;;;;;;-0.68;61.67;97322.73;1723057;83;21038;-78
2022/04/05 00:42:15;;;;;;;10.40;6.67;;;;;;;-0.76;61.75;97319.22;1722844;83;21026;-78
2022/04/05 00:44:42;;;;;;;10.43;6.95;;;;;;;-0.79;61.81;97315.30;1723063;83;21022;-78
2022/04/05 00:47:18;;;;;;;12.13;7.65;;;;;;;-0.83;62.03;97311.81;1723081;83;21050;-78
2022/04/05 00:49:46;;;;;;;11.78;7.47;;;;;;;-0.84;62.15;97311.80;1723491;83;21505;-79
2022/04/05 00:52:16;;;;;;;7.95;6.35;;;;;;;-0.82;62.40;97303.59;1724745;83;21504;-79
2022/04/05 00:54:46;;;;;;;9.10;6.92;;;;;;;-0.86;62.15;97297.93;1725888;83;20968;-79
2022/04/05 00:57:19;;;;;;;10.05;6.65;;;;;;;-0.87;62.18;97297.50;1725912;83;21004;-79
2022/04/05 00:59:50;;;;;;;11.48;7.42;;;;;;;-0.94;62.22;97294.87;1725588;83;21020;-79
2022/04/05 01:02:19;;;;;;;9.88;7.20;;;;;;;-0.95;62.42;97300.06;1701509;83;21449;-79
2022/04/05 01:04:47;;;;;;;10.80;6.75;;;;;;;-0.97;62.29;97295.27;1726010;83;21016;-79
2022/04/05 01:07:18;;;;;;;8.35;6.20;;;;;;;-1.03;62.42;97287.02;1725901;83;20980;-78
2022/04/05 01:09:46;;;;;;;10.68;6.65;;;;;;;-1.07;62.38;97290.02;1726198;83;21012;-79
2022/04/05 01:12:13;;;;;;;11.60;7.10;;;;;;;-1.11;62.47;97284.38;1703724;84;21027;-78
2022/04/05 01:14:41;;;;;;;9.93;6.80;;;;;;;-1.13;62.59;97289.14;1675587;85;21358;-78
2022/04/05 01:17:08;;;;;;;12.45;7.00;;;;;;;-1.16;62.78;97276.11;1703650;84;21048;-78
2022/04/05 01:19:35;;;;;;;11.28;6.40;;;;;;;-1.18;62.90;97283.02;1675200;85;20995;-78
2022/04/05 01:22:02;;;;;;;10.55;7.33;;;;;;;-1.23;63.05;97280.41;1703744;84;21031;-78
2022/04/05 01:24:29;;;;;;;9.33;6.67;;;;;;;-1.21;63.04;97279.55;1675538;85;21078;-78
2022/04/05 01:26:58;;;;;;;13.03;7.47;;;;;;;-1.20;63.10;97277.38;1703919;84;21098;-78
2022/04/05 01:29:28;;;;;;;10.80;6.70;;;;;;;-1.24;63.13;97274.77;1674944;84;21009;-79
2022/04/05 01:32:05;;;;;;;12.47;7.58;;;;;;;-1.26;63.25;97270.85;1722072;83;20995;-78
2022/04/05 01:34:34;;;;;;;11.53;7.55;;;;;;;-1.28;63.34;97269.11;1722234;83;21098;-78
2022/04/05 01:37:09;;;;;;;12.82;7.25;;;;;;;-1.35;63.51;97265.17;1735209;83;21515;-78
2022/04/05 01:39:39;;;;;;;11.18;7.28;;;;;;;-1.37;63.53;97264.73;1735130;83;21035;-78
2022/04/05 01:42:13;;;;;;;10.88;7.00;;;;;;;-1.41;63.70;97265.56;1734915;83;21015;-78
2022/04/05 01:44:42;;;;;;;12.78;7.75;;;;;;;-1.44;63.93;97257.32;1735049;83;21062;-78
2022/04/05 01:47:13;;;;;;;15.78;7.65;;;;;;;-1.43;63.90;97255.16;1735201;83;21452;-80
2022/04/05 01:49:42;;;;;;;13.15;7.78;;;;;;;-1.43;64.01;97250.37;1734825;83;21070;-78
2022/04/05 01:52:10;;;;;;;11.40;7.70;;;;;;;-1.44;63.99;97249.52;1734576;83;21034;-77
2022/04/05 01:54:39;;;;;;;11.48;7.17;;;;;;;-1.48;64.36;97254.26;1735062;83;21089;-78
2022/04/05 01:57:07;;;;;;;12.45;8.08;;;;;;;-1.50;64.50;97247.74;1701750;84;21013;-77
2022/04/05 01:59:36;;;;;;;13.15;7.90;;;;;;;-1.51;64.59;97245.12;1722474;83;21023;-77
2022/04/05 02:02:09;;;;;;;13.83;7.87;;;;;;;-1.50;64.68;97241.70;1735015;83;20987;-77
2022/04/05 02:04:36;;;;;;;10.85;7.35;;;;;;;-1.51;64.93;97246.42;1734968;83;21027;-77
2022/04/05 02:07:14;;;;;;;12.50;7.12;;;;;;;-1.53;64.84;97241.22;1702668;84;21412;-77
2022/04/05 02:09:41;;;;;;;11.57;8.15;;;;;;;-1.60;64.52;97245.53;1702010;84;21510;-77
2022/04/05 02:12:09;;;;;;;12.45;7.92;;;;;;;-1.65;64.70;97239.85;1702406;84;21037;-77
2022/04/05 02:14:39;;;;;;;11.30;7.28;;;;;;;-1.65;65.18;97240.73;1700765;84;21065;-77
2022/04/05 02:17:09;;;;;;;11.55;7.80;;;;;;;-1.65;64.99;97238.55;1702560;84;21471;-77
2022/04/05 02:19:38;;;;;;;10.15;7.65;;;;;;;-1.68;65.09;97242.41;1722624;83;21108;-77
2022/04/05 02:22:06;;;;;;;11.88;8.40;;;;;;;-1.75;65.14;97234.59;1724228;83;21040;-77
2022/04/05 02:24:33;;;;;;;13.15;8.00;;;;;;;-1.79;65.13;97237.16;1735027;83;21421;-77
2022/04/05 02:27:01;;;;;;;12.13;7.75;;;;;;;-1.80;65.33;97238.00;1735173;83;21430;-78
2022/04/05 02:29:28;;;;;;;12.63;8.75;;;;;;;-1.76;65.42;97231.97;1738687;81;21011;-78
2022/04/05 02:31:56;;;;;;;12.25;8.58;;;;;;;-1.79;65.40;97231.97;1738268;82;21099;-78
2022/04/05 02:34:24;;;;;;;11.73;8.10;;;;;;;-1.83;65.53;97224.56;1703995;84;21405;-78
2022/04/05 02:36:52;;;;;;;15.40;8.50;;;;;;;-1.82;65.67;97221.13;1661884;86;21027;-77
2022/04/05 02:39:19;;;;;;;15.75;8.25;;;;;;;-1.84;65.87;97220.68;1673144;85;20997;-77
2022/04/05 02:41:47;;;;;;;14.95;8.73;;;;;;;-1.88;65.81;97219.34;1659829;85;21054;-78
2022/04/05 02:44:15;;;;;;;13.05;8.58;;;;;;;-1.87;65.71;97219.78;1673488;86;21509;-78
2022/04/05 02:46:41;;;;;;;11.80;7.55;;;;;;;-1.89;65.75;97220.63;1660172;86;21031;-78
2022/04/05 02:49:13;;;;;;;15.43;8.73;;;;;;;-1.91;65.99;97208.92;1673426;85;21031;-78
2022/04/05 02:51:39;;;;;;;13.05;8.28;;;;;;;-1.88;66.05;97212.86;1660267;86;21703;-78
2022/04/05 02:54:08;;;;;;;12.68;8.55;;;;;;;-1.85;66.21;97212.00;1672615;86;21132;-78
2022/04/05 02:56:35;;;;;;;14.07;8.23;;;;;;;-1.83;66.16;97214.17;1660363;86;21084;-77
2022/04/05 02:59:03;;;;;;;14.93;8.93;;;;;;;-1.88;66.07;97218.05;1673433;86;21060;-78
2022/04/05 03:01:30;;;;;;;13.38;8.90;;;;;;;-1.92;66.34;97212.39;1660251;86;21066;-78
2022/04/05 03:03:58;;;;;;;15.75;8.98;;;;;;;-1.88;66.44;97219.34;1673264;86;21032;-78
2022/04/05 03:06:25;;;;;;;14.78;8.88;;;;;;;-1.90;66.38;97208.09;1659970;86;21031;-78
2022/04/05 03:08:56;;;;;;;12.85;8.28;;;;;;;-1.94;66.39;97212.82;1673588;86;21016;-78
2022/04/05 03:11:22;;;;;;;12.63;8.38;;;;;;;-1.96;66.57;97211.07;1660043;86;21031;-78
2022/04/05 03:13:50;;;;;;;12.50;8.43;;;;;;;-1.98;66.82;97212.34;1642750;86;21001;-79
2022/04/05 03:16:17;;;;;;;15.60;8.73;;;;;;;-2.01;66.67;97213.20;1660213;86;20991;-79
2022/04/05 03:18:50;;;;;;;12.68;8.93;;;;;;;-2.00;66.76;97214.05;1673584;86;20977;-79
2022/04/05 03:21:17;;;;;;;15.38;8.23;;;;;;;-2.03;66.94;97207.10;1660201;86;21031;-78
2022/04/05 03:23:44;;;;;;;11.10;8.10;;;;;;;-2.01;67.15;97205.41;1673528;85;21009;-78
2022/04/05 03:26:11;;;;;;;12.53;7.83;;;;;;;-1.99;67.19;97209.32;1660074;86;21053;-78
2022/04/05 03:28:38;;;;;;;14.68;9.03;;;;;;;-2.02;67.24;97203.67;1673536;84;21410;-78
2022/04/05 03:31:05;;;;;;;14.65;9.55;;;;;;;-2.02;67.41;97201.08;1684727;85;21022;-78
2022/04/05 03:33:32;;;;;;;14.40;8.93;;;;;;;-2.02;67.53;97194.58;1684620;85;21137;-78
2022/04/05 03:36:01;;;;;;;18.48;9.83;;;;;;;-2.06;67.57;97196.71;1684827;85;21451;-78
2022/04/05 03:38:29;;;;;;;17.85;9.50;;;;;;;-2.05;67.54;97194.55;1683983;85;21070;-78
2022/04/05 03:40:57;;;;;;;18.82;9.60;;;;;;;-2.04;67.72;97194.98;1684033;85;21034;-79
2022/04/05 03:43:24;;;;;;;16.25;9.85;;;;;;;-2.03;67.80;97186.78;1684235;85;21050;-79
2022/04/05 03:45:53;;;;;;;12.07;8.13;;;;;;;-2.02;67.83;97194.58;1684691;85;21043;-79
2022/04/05 03:48:20;;;;;;;15.43;9.18;;;;;;;-2.04;67.94;97194.13;1684688;85;21038;-79
2022/04/05 03:50:47;;;;;;;14.63;9.88;;;;;;;-2.05;67.88;97191.95;1684769;85;21019;-79
2022/04/05 03:53:14;;;;;;;19.35;10.48;;;;;;;-2.06;67.79;97188.04;1684425;85;21504;-79
2022/04/05 03:55:42;;;;;;;21.77;11.08;;;;;;;-2.10;68.32;97183.27;1684611;85;21035;-79
2022/04/05 03:58:12;;;;;;;18.07;10.72;;;;;;;-2.11;67.99;97178.94;1684543;85;21022;-79
2022/04/05 04:00:39;;;;;;;18.87;9.95;;;;;;;-2.11;68.38;97172.44;1684373;85;21030;-79
2022/04/05 04:03:10;;;;;;;17.42;9.23;;;;;;;-2.13;68.69;97188.00;1683426;85;21058;-80
2022/04/05 04:05:37;;;;;;;17.17;9.43;;;;;;;-2.14;68.30;97178.48;1684022;85;21038;-79
2022/04/05 04:08:06;;;;;;;17.30;10.10;;;;;;;-2.13;68.79;97179.33;1684509;85;21027;-79
2022/04/05 04:10:34;;;;;;;15.85;9.65;;;;;;;-2.14;68.88;97175.00;1683341;85;21050;-79
2022/04/05 04:13:02;;;;;;;15.65;9.30;;;;;;;-2.10;68.57;97170.70;1684734;85;21444;-79
2022/04/05 04:15:30;;;;;;;16.40;9.13;;;;;;;-2.10;68.64;97178.48;1683601;85;21023;-79
2022/04/05 04:17:57;;;;;;;17.52;8.98;;;;;;;-2.07;68.68;97174.20;1684729;85;21055;-79
2022/04/05 04:20:24;;;;;;;15.83;9.55;;;;;;;-2.05;68.77;97164.69;1684216;85;21042;-79
2022/04/05 04:22:52;;;;;;;16.48;9.83;;;;;;;-2.02;68.81;97167.32;1683432;85;21066;-79
2022/04/05 04:25:20;;;;;;;16.60;9.63;;;;;;;-1.94;68.74;97162.59;1684090;85;21833;-79
2022/04/05 04:27:48;;;;;;;16.48;9.53;;;;;;;-1.91;68.70;97169.12;1684919;83;21071;-79
2022/04/05 04:30:15;;;;;;;17.37;10.10;;;;;;;-1.88;68.64;97171.30;1683774;85;21038;-78
2022/04/05 04:32:42;;;;;;;15.40;10.23;;;;;;;-1.85;68.90;97171.75;1683950;85;21150;-78
2022/04/05 04:35:09;;;;;;;15.78;10.78;;;;;;;-1.83;68.80;97167.42;1684217;85;21070;-79
2022/04/05 04:37:37;;;;;;;17.95;10.78;;;;;;;-1.79;68.69;97165.73;1684126;85;21457;-79
2022/04/05 04:40:05;;;;;;;22.10;11.08;;;;;;;-1.75;68.67;97168.77;1670243;85;20956;-78
2022/04/05 04:42:35;;;;;;;19.73;10.20;;;;;;;-1.71;68.63;97157.98;1665132;84;21086;-79
2022/04/05 04:45:02;;;;;;;20.88;11.45;;;;;;;-1.67;68.67;97162.34;1659966;86;21123;-78
2022/04/05 04:47:28;;;;;;;17.57;10.58;;;;;;;-1.64;69.02;97159.73;1660365;85;21429;-78
2022/04/05 04:49:55;;;;;;;17.73;11.55;;;;;;;-1.61;68.82;97148.08;1671162;85;20992;-78
2022/04/05 04:52:25;;;;;;;17.70;11.08;;;;;;;-1.56;68.92;97147.67;1659966;86;21091;-78
2022/04/05 04:54:51;;;;;;;16.97;11.05;;;;;;;-1.54;68.75;97145.93;1660052;86;21061;-79
2022/04/05 04:57:18;;;;;;;21.42;10.75;;;;;;;-1.48;68.92;97151.18;1671627;85;20972;-78
2022/04/05 04:59:45;;;;;;;16.23;10.65;;;;;;;-1.41;68.78;97144.70;1675105;85;20964;-78
2022/04/05 05:02:11;;;;;;;19.52;11.90;;;;;;;-1.35;68.86;97146.91;1672833;85;21027;-78
2022/04/05 05:04:38;;;;;;;15.93;11.03;;;;;;;-1.28;68.85;97140.42;1684187;84;21441;-79
2022/04/05 05:07:05;;;;;;;18.82;11.05;;;;;;;-1.24;68.81;97140.88;1688192;85;20992;-79
2022/04/05 05:09:31;;;;;;;19.80;11.10;;;;;;;-1.22;68.77;97144.33;1672278;86;21007;-79
2022/04/05 05:11:58;;;;;;;22.50;11.40;;;;;;;-1.15;68.57;97141.33;1725441;83;21047;-79
2022/04/05 05:14:27;;;;;;;19.70;11.55;;;;;;;-1.09;68.54;97146.12;1700728;83;20996;-79
2022/04/05 05:16:54;;;;;;;19.80;11.45;;;;;;;-1.02;68.58;97134.42;1696363;85;20969;-79
2022/04/05 05:19:21;;;;;;;19.50;11.80;;;;;;;-0.90;68.53;97133.59;1715386;83;21051;-78
2022/04/05 05:21:48;;;;;;;20.05;10.43;;;;;;;-0.78;68.45;97131.02;1725301;83;21445;-78
2022/04/05 05:24:15;;;;;;;26.07;11.22;;;;;;;-0.64;68.25;97146.65;1711178;83;21004;-78
2022/04/05 05:26:42;;;;;;;18.98;11.28;;;;;;;-0.48;67.98;97140.15;1723537;83;21023;-78
2022/04/05 05:29:08;;;;;;;21.50;11.30;;;;;;;-0.34;67.78;97144.93;1720613;83;20992;-78
2022/04/05 05:31:35;;;;;;;21.60;11.65;;;;;;;-0.23;67.69;97133.64;1701357;83;21035;-78
2022/04/05 05:34:01;;;;;;;16.95;11.22;;;;;;;-0.14;67.46;97128.43;1696567;84;21515;-78
2022/04/05 05:36:28;;;;;;;19.00;11.78;;;;;;;-0.05;67.35;97129.73;1700806;83;21016;-78
2022/04/05 05:38:55;;;;;;;19.07;10.80;;;;;;;0.01;67.30;97126.25;1697228;84;21457;-78
2022/04/05 05:41:21;;;;;;;20.75;11.22;;;;;;;0.07;67.03;97130.14;1708158;83;20980;-79
2022/04/05 05:43:48;;;;;;;18.95;10.58;;;;;;;0.12;67.00;97120.58;1726237;83;21480;-79
2022/04/05 05:46:15;;;;;;;20.92;11.43;;;;;;;0.19;66.88;97122.73;1725941;83;20981;-79
2022/04/05 05:48:42;;;;;;;16.05;10.82;;;;;;;0.27;66.81;97126.63;1726100;83;21028;-79
2022/04/05 05:51:09;;;;;;;18.70;12.18;;;;;;;0.35;66.51;97120.97;1716512;83;20996;-79
2022/04/05 05:53:36;;;;;;;19.27;10.30;;;;;;;0.45;66.23;97124.40;1713322;82;21003;-78
2022/04/05 05:56:02;;;;;;;20.77;12.07;;;;;;;0.55;66.02;97127.86;1713858;82;21004;-79
2022/04/05 05:58:29;;;;;;;22.40;12.03;;;;;;;0.63;66.04;97115.64;1704891;83;20988;-79
2022/04/05 06:00:56;;;;;;;17.62;11.12;;;;;;;0.72;66.02;97129.09;1701657;83;21016;-79
2022/04/05 06:03:22;;;;;;;18.85;11.40;;;;;;;0.80;65.90;97122.54;1700645;83;21399;-79
2022/04/05 06:05:49;;;;;;;19.77;11.90;;;;;;;0.89;65.68;97121.61;1697534;83;20996;-79
2022/04/05 06:08:17;;;;;;;19.12;12.47;;;;;;;0.98;65.65;97116.36;1701604;83;21019;-79
2022/04/05 06:10:44;;;;;;;19.37;11.55;;;;;;;1.08;65.30;97113.23;1696898;84;20992;-78
2022/04/05 06:13:11;;;;;;;20.95;11.43;;;;;;;1.20;65.08;97110.99;1697929;83;21031;-77
2022/04/05 06:15:38;;;;;;;24.45;12.63;;;;;;;1.30;65.04;97115.73;1710136;83;21000;-80
2022/04/05 06:18:05;;;;;;;23.35;12.68;;;;;;;1.40;64.89;97108.26;1703988;84;20967;-80
2022/04/05 06:20:32;;;;;;;19.05;11.80;;;;;;;1.50;64.51;97109.50;1667814;85;21047;-81
2022/04/05 06:23:05;;;;;;;16.93;11.03;;;;;;;1.62;64.67;97096.33;1658107;86;21413;-80
2022/04/05 06:25:35;;;;;;;21.10;11.20;;;;;;;1.75;64.43;97088.39;1650803;86;21032;-80
2022/04/05 06:28:06;;;;;;;20.60;10.93;;;;;;;1.88;64.26;97093.94;1666945;84;21030;-79
2022/04/05 06:30:37;;;;;;;19.42;10.48;;;;;;;2.01;63.98;97094.69;1645139;87;21095;-82
2022/04/05 06:33:17;;;;;;;16.55;10.18;;;;;;;2.13;63.66;97092.82;1652800;86;21102;-82
2022/04/05 06:35:48;;;;;;;18.75;10.55;;;;;;;2.23;63.31;97087.48;1670303;86;21325;-81
2022/04/05 06:38:15;;;;;;;15.93;10.53;;;;;;;2.35;63.19;97089.53;1656939;86;21050;-81
2022/04/05 06:40:44;;;;;;;16.52;11.05;;;;;;;2.47;62.89;97082.86;1726430;83;21401;-80
2022/04/05 06:43:14;;;;;;;15.32;11.68;;;;;;;2.62;62.87;97085.72;1711020;83;21385;-81
2022/04/05 06:45:42;;;;;;;20.17;12.25;;;;;;;2.75;62.71;97086.89;1701265;83;21031;-81
2022/04/05 06:48:09;;;;;;;17.50;11.43;;;;;;;2.83;62.42;97082.39;1701628;84;20976;-81
2022/04/05 06:50:40;;;;;;;17.90;12.43;;;;;;;2.92;62.22;97070.95;1701763;84;21051;-80
2022/04/05 06:53:09;;;;;;;18.67;11.38;;;;;;;2.98;62.13;97072.17;1702010;84;21063;-81
2022/04/05 06:55:38;;;;;;;22.60;12.35;;;;;;;3.07;61.50;97074.25;1722557;82;21082;-81
2022/04/05 06:58:13;;;;;;;52.33;24.85;;;;;;;3.14;61.64;97068.02;1721124;82;20975;-83
2022/04/05 07:00:42;;;;;;;34.88;19.35;;;;;;;3.23;61.48;97066.58;1707146;83;21023;-85
2022/04/05 07:03:09;;;;;;;23.57;13.32;;;;;;;3.33;61.29;97058.58;1718377;83;21370;-86
2022/04/05 07:05:36;;;;;;;25.32;16.23;;;;;;;3.43;61.23;97056.23;1716470;83;21062;-84
2022/04/05 07:08:04;;;;;;;18.90;11.70;;;;;;;3.54;60.74;97054.75;1710882;83;20968;-84
2022/04/05 07:10:31;;;;;;;18.87;11.43;;;;;;;3.66;60.28;97049.75;1724409;83;20984;-82
2022/04/05 07:12:57;;;;;;;21.00;11.38;;;;;;;3.76;60.16;97047.39;1685775;84;21495;-81
2022/04/05 07:15:24;;;;;;;22.70;12.13;;;;;;;3.88;60.30;97055.48;1672186;84;21004;-83
2022/04/05 07:17:50;;;;;;;16.10;11.10;;;;;;;4.00;59.17;97046.53;1684972;85;21512;-82
2022/04/05 07:20:17;;;;;;;18.25;12.15;;;;;;;4.13;59.63;97045.84;1675566;85;21552;-83
2022/04/05 07:22:47;;;;;;;22.40;12.07;;;;;;;4.27;59.42;97040.80;1667429;85;20980;-82
2022/04/05 07:25:14;;;;;;;15.50;9.80;;;;;;;4.39;59.46;97033.97;1730552;83;21009;-81
2022/04/05 07:27:41;;;;;;;14.07;9.23;;;;;;;4.52;58.87;97039.83;1698363;84;21095;-82
2022/04/05 07:30:09;;;;;;;14.83;9.90;;;;;;;4.66;58.65;97033.43;1685947;85;20996;-81
2022/04/05 07:32:42;;;;;;;14.15;9.53;;;;;;;4.77;57.75;97024.87;1698160;84;21091;-83
2022/04/05 07:35:09;;;;;;;15.20;8.70;;;;;;;4.92;58.47;97021.05;1685982;85;21001;-82
2022/04/05 07:37:37;;;;;;;12.37;7.75;;;;;;;5.06;58.04;97023.34;1703633;84;21036;-83
2022/04/05 07:40:10;;;;;;;10.40;7.55;;;;;;;5.23;57.48;97023.42;1733223;83;21485;-83
2022/04/05 07:42:40;;;;;;;8.83;6.05;;;;;;;5.45;54.88;97021.58;1701979;84;21426;-84
2022/04/05 07:45:12;;;;;;;5.42;4.70;;;;;;;5.73;53.24;97023.52;1722527;81;21011;-84
2022/04/05 07:47:43;;;;;;;6.37;4.42;;;;;;;6.07;50.40;97023.97;1717072;83;21003;-84
2022/04/05 07:50:14;;;;;;;8.15;4.90;;;;;;;6.36;46.70;97019.67;1706793;84;21044;-82
2022/04/05 07:52:41;;;;;;;5.60;4.75;;;;;;;6.51;47.79;97019.66;1732493;83;21031;-83
2022/04/05 07:55:08;;;;;;;8.78;5.03;;;;;;;6.65;49.49;97017.97;1733392;83;21449;-83
2022/04/05 07:57:40;;;;;;;6.50;5.17;;;;;;;6.77;48.78;97012.76;1733462;83;20991;-82
2022/04/05 08:00:08;;;;;;;7.95;5.28;;;;;;;6.86;45.54;97012.95;1733166;83;21544;-81
2022/04/05 08:02:44;;;;;;;7.15;4.70;;;;;;;6.93;45.57;97017.11;1708924;81;20987;-82
2022/04/05 08:05:12;;;;;;;6.10;4.67;;;;;;;7.00;47.91;97008.13;1726124;83;21003;-83
2022/04/05 08:07:39;;;;;;;4.87;4.03;;;;;;;7.04;48.22;96994.84;1682308;84;21000;-82
2022/04/05 08:10:07;;;;;;;8.98;4.83;;;;;;;7.09;47.78;97000.82;1717068;83;21011;-82
2022/04/05 08:12:47;;;;;;;5.95;4.65;;;;;;;7.20;47.52;96997.41;1695534;84;20950;-82
2022/04/05 08:15:20;;;;;;;4.92;4.12;;;;;;;7.31;45.38;96998.83;1719922;83;21074;-82
2022/04/05 08:17:48;;;;;;;6.87;4.70;;;;;;;7.38;47.82;96996.39;1719769;83;21450;-83
2022/04/05 08:20:16;;;;;;;5.83;4.75;;;;;;;7.48;47.71;96992.53;1692516;84;20960;-82
2022/04/05 08:22:43;;;;;;;8.43;4.60;;;;;;;7.62;46.83;96992.53;1704653;83;21007;-81
2022/04/05 08:25:16;;;;;;;8.83;5.42;;;;;;;7.77;43.96;96999.08;1720069;83;21044;-82
2022/04/05 08:27:45;;;;;;;6.62;4.60;;;;;;;7.96;44.22;96995.33;1718988;83;20984;-81
2022/04/05 08:30:15;;;;;;;5.50;4.35;;;;;;;8.12;44.58;96989.05;1692665;84;21401;-82
2022/04/05 08:32:44;;;;;;;5.80;4.40;;;;;;;8.34;46.03;96987.41;1718412;82;21043;-81
2022/04/05 08:35:15;;;;;;;4.78;3.85;;;;;;;8.62;45.51;96981.11;1695520;84;21014;-80
2022/04/05 08:37:44;;;;;;;5.50;4.00;;;;;;;8.90;45.17;96978.28;1713944;81;21095;-83
2022/04/05 08:40:14;;;;;;;6.37;4.10;;;;;;;9.18;45.15;96977.16;1718422;83;21023;-83
2022/04/05 08:42:45;;;;;;;6.58;4.35;;;;;;;9.48;44.39;96975.98;1705315;83;21008;-82
2022/04/05 08:45:15;;;;;;;11.22;7.45;;;;;;;9.72;42.10;96964.81;1721777;83;20960;-83
2022/04/05 08:47:52;;;;;;;4.83;4.22;;;;;;;9.94;41.62;96973.61;1698515;84;20993;-83
2022/04/05 08:50:30;;;;;;;7.10;3.90;;;;;;;10.05;41.74;96967.37;1720704;83;20991;-84
2022/04/05 08:53:01;;;;;;;9.73;4.58;;;;;;;10.18;41.47;96973.02;1697983;82;21383;-84
2022/04/05 08:55:29;;;;;;;5.72;3.62;;;;;;;10.27;38.60;96970.41;1716315;83;20999;-83
2022/04/05 08:57:56;;;;;;;5.15;3.42;;;;;;;10.36;37.80;96969.13;1717675;82;20998;-84
2022/04/05 09:00:24;;;;;;;5.65;3.30;;;;;;;10.52;40.04;96967.55;1720828;83;21075;-83
2022/04/05 09:02:57;;;;;;;5.80;3.58;;;;;;;10.71;40.83;96963.19;1717152;83;21019;-83
2022/04/05 09:05:34;;;;;;;4.53;3.33;;;;;;;10.91;41.08;96945.86;1698566;84;20922;-82
2022/04/05 09:08:28;;;;;;;5.58;3.60;;;;;;;11.08;39.14;96946.83;1720871;83;20984;-83
2022/04/05 09:11:04;;;;;;;;;;;;;;;11.25;39.63;96937.20;1705430;83;21494;-83
2022/04/05 09:13:31;;;;;;;5.00;3.55;;;;;;;11.49;40.53;96939.96;1684694;84;20537;-82
2022/04/05 09:16:04;;;;;;;5.12;3.62;;;;;;;11.63;39.96;96935.76;1667618;84;21050;-81
2022/04/05 09:18:36;;;;;;;17.00;11.00;;;;;;;11.60;34.52;96931.47;1718576;83;20996;-81
2022/04/05 09:21:09;;;;;;;18.98;11.33;;;;;;;11.61;36.55;96932.30;1712690;83;20948;-82
2022/04/05 09:23:41;;;;;;;4.92;3.35;;;;;;;11.63;34.95;96929.13;1720690;83;21032;-81
2022/04/05 09:26:11;;;;;;;4.35;3.10;;;;;;;11.61;35.51;96927.00;1722673;83;21014;-82
2022/04/05 09:28:44;;;;;;;4.03;3.05;;;;;;;11.75;36.86;96930.26;1717722;83;21078;-81
2022/04/05 09:31:17;;;;;;;5.78;2.80;;;;;;;11.81;32.81;96932.62;1696966;84;20969;-82
2022/04/05 09:34:12;;;;;;;7.22;3.10;;;;;;;11.83;33.62;96928.56;1720316;83;21000;-82
2022/04/05 09:36:42;;;;;;;4.85;3.12;;;;;;;11.77;31.33;96937.69;1699515;84;21041;-81
2022/04/05 09:39:22;;;;;;;5.17;3.55;;;;;;;11.73;32.40;96933.02;1693863;84;21137;-81
2022/04/05 09:42:02;;;;;;;3.83;2.75;;;;;;;11.87;34.50;96927.44;1718396;83;20968;-82
2022/04/05 09:44:33;;;;;;;4.75;2.90;;;;;;;12.05;34.88;96914.18;1719236;83;20996;-83
2022/04/05 09:47:17;;;;;;;4.17;3.40;;;;;;;12.22;33.73;96910.17;1708432;84;21002;-81
2022/04/05 09:49:44;;;;;;;6.55;2.90;;;;;;;12.26;31.89;96914.34;1732221;83;21059;-82
2022/04/05 09:52:32;;;;;;;4.15;2.77;;;;;;;12.14;31.88;96916.35;1708468;84;21419;-81
2022/04/05 09:55:16;;;;;;;4.03;3.47;;;;;;;12.01;32.81;96916.95;1733634;83;21023;-83
2022/04/05 09:57:46;;;;;;;6.08;3.58;;;;;;;11.98;34.03;96909.62;1708683;84;21092;-82
2022/04/05 10:00:17;;;;;;;3.62;2.70;;;;;;;12.16;34.79;96904.32;1729429;81;21046;-82
2022/04/05 10:03:11;;;;;;;5.72;2.85;;;;;;;12.40;33.27;96904.32;1709920;83;21479;-81
2022/04/05 10:05:39;;;;;;;4.58;2.95;;;;;;;12.50;33.05;96910.46;1705770;83;21470;-80
2022/04/05 10:08:06;;;;;;;4.65;2.90;;;;;;;12.46;30.71;96914.22;1705972;84;21435;-81
2022/04/05 10:10:33;;;;;;;3.95;2.65;;;;;;;12.22;30.61;96907.52;1706358;84;21034;-81
2022/04/05 10:13:00;;;;;;;4.20;2.70;;;;;;;12.33;31.96;96892.30;1706039;84;21037;-81
2022/04/05 10:15:28;;;;;;;10.45;6.08;;;;;;;12.55;31.50;96899.11;1706609;84;21056;-81
2022/04/05 10:17:59;;;;;;;4.90;2.80;;;;;;;12.57;30.74;96888.39;1707107;84;21002;-81
2022/04/05 10:20:29;;;;;;;4.87;2.70;;;;;;;12.55;30.03;96884.48;1705828;84;21030;-82
2022/04/05 10:23:01;;;;;;;5.22;3.20;;;;;;;12.73;30.93;96889.70;1705403;84;21021;-79
2022/04/05 10:25:29;;;;;;;3.85;3.17;;;;;;;12.88;30.50;96887.98;1706506;84;21070;-82
2022/04/05 10:27:58;;;;;;;2.80;2.50;;;;;;;12.98;30.53;96882.53;1709669;83;21014;-82
2022/04/05 10:30:33;;;;;;;4.50;3.17;;;;;;;13.00;29.96;96887.77;1705006;84;21121;-82
2022/04/05 10:33:04;;;;;;;3.05;2.75;;;;;;;13.05;30.55;96871.06;1712073;83;21036;-82
2022/04/05 10:35:36;;;;;;;2.77;2.47;;;;;;;13.09;30.20;96883.70;1704472;84;21534;-81
2022/04/05 10:38:18;;;;;;;4.55;2.15;;;;;;;13.03;29.79;96879.59;1700468;83;21098;-81
2022/04/05 10:41:19;;;;;;;4.22;2.83;;;;;;;12.96;29.61;96883.56;1657272;86;21428;-82
2022/04/05 10:44:08;;;;;;;4.60;2.85;;;;;;;13.09;30.15;96871.28;1692065;84;21059;-81
2022/04/05 10:46:44;;;;;;;3.60;2.40;;;;;;;13.39;31.53;96869.55;1679942;85;21145;-81
2022/04/05 10:49:11;;;;;;;3.62;2.45;;;;;;;13.28;29.29;96873.70;1679082;85;21060;-80
2022/04/05 10:52:04;;;;;;;3.35;2.72;;;;;;;13.00;29.26;96871.31;1679869;85;21115;-81
2022/04/05 10:54:50;;;;;;;3.50;2.65;;;;;;;12.97;30.59;96860.00;1685960;85;21024;-82
2022/04/05 10:57:31;;;;;;;5.75;2.70;;;;;;;13.06;30.94;96856.81;1657765;86;21044;-81
2022/04/05 11:00:14;;;;;;;3.17;2.70;;;;;;;13.20;30.23;96866.18;1680901;84;21078;-82
2022/04/05 11:02:55;;;;;;;5.15;2.50;;;;;;;13.24;30.34;96849.55;1664045;84;21036;-80
2022/04/05 11:05:35;;;;;;;4.22;2.30;;;;;;;13.27;30.57;96847.19;1671061;85;21091;-80
2022/04/05 11:08:02;;;;;;;3.45;2.70;;;;;;;13.51;31.21;96846.25;1683299;85;21070;-80
2022/04/05 11:10:40;;;;;;;2.95;2.52;;;;;;;13.72;29.95;96847.22;1678922;84;21015;-80
2022/04/05 11:13:13;;;;;;;3.83;2.72;;;;;;;14.21;29.92;96838.47;1671866;86;21036;-80
2022/04/05 11:15:50;;;;;;;3.20;2.50;;;;;;;14.95;27.31;96827.54;1673415;86;21103;-79
2022/04/05 11:18:26;;;;;;;3.85;2.55;;;;;;;15.18;27.59;96822.49;1679011;84;21051;-80
2022/04/05 11:20:55;;;;;;;2.90;2.47;;;;;;;15.16;26.60;96819.92;1682528;84;21028;-80
2022/04/05 11:23:51;;;;;;;3.35;2.50;;;;;;;15.24;27.73;96815.39;1655878;86;21108;-80
2022/04/05 11:26:35;;;;;;;3.55;2.40;;;;;;;15.21;27.16;96822.30;1680532;84;21015;-81
2022/04/05 11:29:05;;;;;;;;;;;;;;;14.98;25.00;96818.48;1659136;86;21050;-80
2022/04/05 11:31:37;;;;;;;5.75;2.80;;;;;;;14.58;25.68;96817.94;1664695;86;20717;-80
2022/04/05 11:34:37;;;;;;;3.65;3.10;;;;;;;14.34;27.29;96815.89;1718206;83;20976;-81
2022/04/05 11:37:06;;;;;;;3.12;2.40;;;;;;;14.24;26.82;96811.15;1679568;84;20981;-81
2022/04/05 11:39:39;;;;;;;4.20;2.85;;;;;;;13.94;26.35;96815.27;1684169;83;21545;-81
2022/04/05 11:42:06;;;;;;;3.22;2.58;;;;;;;13.80;27.03;96818.79;1657520;86;21003;-79